Time;durP1;ratioP1;P1;durP2;ratioP2;P2;SDS_P1;SDS_P2;PMS_P1;PMS_P2;Temp;Humidity;BMP_temperature;BMP_pressure;BME280_temperature;BME280_humidity;BME280_pressure;Samples;Min_cycle;Max_cycle;Signal;HPM_P1;HPM_P2
2023/12/01 00:02:21;;;;;;;41.35;21.52;;;1.60;99.90;;;;;;5035962;28;20032;-92
2023/12/01 00:04:47;;;;;;;41.20;20.98;;;1.60;99.90;;;;;;5035860;28;20104;-93
2023/12/01 00:07:12;;;;;;;49.40;21.95;;;1.70;99.90;;;;;;5034592;28;20055;-92
2023/12/01 00:09:38;;;;;;;51.13;22.15;;;1.70;99.90;;;;;;5051036;28;20045;-91
2023/12/01 00:12:04;;;;;;;49.53;21.08;;;1.60;99.90;;;;;;5030920;28;20030;-91
2023/12/01 00:14:31;;;;;;;44.63;20.60;;;1.60;99.90;;;;;;5026453;28;20030;-93
2023/12/01 00:16:57;;;;;;;37.97;19.55;;;1.50;99.90;;;;;;5028019;28;20060;-93
2023/12/01 00:19:22;;;;;;;42.63;19.90;;;1.60;99.90;;;;;;5027175;28;20030;-93
2023/12/01 00:21:48;;;;;;;42.28;20.23;;;1.60;99.90;;;;;;5018046;28;20088;-93
2023/12/01 00:24:14;;;;;;;46.00;20.95;;;1.60;99.90;;;;;;5019681;28;20026;-93
2023/12/01 00:26:40;;;;;;;44.53;20.73;;;1.60;99.90;;;;;;5022898;28;20058;-94
2023/12/01 00:29:05;;;;;;;42.53;19.85;;;1.60;99.90;;;;;;5026027;28;20057;-94
2023/12/01 00:31:31;;;;;;;38.40;19.80;;;1.60;99.90;;;;;;5038941;28;20083;-93
2023/12/01 00:33:57;;;;;;;44.85;20.08;;;1.50;99.90;;;;;;5038418;28;20029;-93
2023/12/01 00:36:22;;;;;;;37.40;20.00;;;1.60;99.90;;;;;;5038837;28;20028;-94
2023/12/01 00:38:48;;;;;;;36.35;18.67;;;1.60;99.90;;;;;;5040002;28;20030;-92
2023/12/01 00:41:14;;;;;;;38.80;19.27;;;1.60;99.90;;;;;;5038201;28;20053;-92
2023/12/01 00:43:39;;;;;;;38.45;17.60;;;1.50;99.90;;;;;;5032094;28;20067;-92
2023/12/01 00:46:05;;;;;;;36.42;17.45;;;1.60;99.90;;;;;;5024150;28;20022;-93
2023/12/01 00:48:31;;;;;;;36.70;18.00;;;1.60;99.90;;;;;;5392056;22;20083;-94
2023/12/01 00:50:57;;;;;;;37.97;18.33;;;2.50;99.90;;;;;;5043740;28;20022;-95
2023/12/01 00:53:22;;;;;;;36.80;18.60;;;1.50;99.90;;;;;;5039776;28;20466;-95
2023/12/01 00:55:48;;;;;;;38.63;19.48;;;1.70;99.90;;;;;;5046323;28;20029;-94
2023/12/01 00:58:14;;;;;;;41.65;18.10;;;1.80;99.90;;;;;;5039386;28;20056;-94
2023/12/01 01:00:40;;;;;;;46.17;20.45;;;2.40;99.90;;;;;;5038159;28;20036;-94
2023/12/01 01:03:11;;;;;;;45.10;19.65;;;2.30;99.90;;;;;;5040738;28;20025;-93
2023/12/01 01:05:49;;;;;;;40.53;20.30;;;2.60;99.90;;;;;;5044662;28;20025;-93
2023/12/01 01:08:15;;;;;;;39.03;20.05;;;2.20;99.90;;;;;;5041215;28;20048;-92
2023/12/01 01:10:41;;;;;;;39.50;19.15;;;2.20;99.90;;;;;;5043855;28;20033;-94
2023/12/01 01:13:06;;;;;;;36.92;19.55;;;2.70;99.90;;;;;;5058504;28;20021;-94
2023/12/01 01:15:32;;;;;;;39.22;19.10;;;1.60;99.90;;;;;;5052615;28;20492;-93
2023/12/01 01:18:00;;;;;;;43.33;20.88;;;2.60;99.90;;;;;;5040667;28;20424;-93
2023/12/01 01:20:25;;;;;;;43.17;21.17;;;1.90;99.90;;;;;;5037664;28;20030;-92
2023/12/01 01:22:51;;;;;;;40.92;19.60;;;2.00;99.90;;;;;;5038630;28;20086;-94
2023/12/01 01:25:17;;;;;;;39.50;19.60;;;2.60;99.90;;;;;;5032353;28;20061;-93
2023/12/01 01:27:43;;;;;;;39.72;17.98;;;1.60;99.90;;;;;;5028191;28;20045;-92
2023/12/01 01:30:09;;;;;;;35.63;17.05;;;1.70;99.90;;;;;;5030223;28;20030;-93
2023/12/01 01:32:34;;;;;;;31.20;16.92;;;1.30;99.90;;;;;;5039404;28;20108;-93
2023/12/01 01:35:01;;;;;;;28.80;15.65;;;1.60;99.90;;;;;;5046694;28;20064;-93
2023/12/01 01:37:26;;;;;;;33.13;17.02;;;1.60;99.90;;;;;;5045539;28;20442;-92
2023/12/01 01:39:54;;;;;;;31.08;15.85;;;1.60;99.90;;;;;;5048927;28;20082;-93
2023/12/01 01:42:45;;;;;;;33.63;18.38;;;1.60;99.90;;;;;;5051824;28;20037;-93
2023/12/01 01:45:11;;;;;;;35.07;17.63;;;1.60;99.90;;;;;;5049443;28;20056;-93
2023/12/01 01:47:37;;;;;;;34.42;16.70;;;2.10;99.90;;;;;;5038830;28;20268;-92
2023/12/01 01:50:26;;;;;;;38.00;19.00;;;2.10;99.90;;;;;;5046524;28;20113;-93
2023/12/01 01:52:54;;;;;;;35.72;18.08;;;1.60;99.90;;;;;;5035443;28;20032;-90
2023/12/01 01:55:19;;;;;;;32.58;16.00;;;1.40;99.90;;;;;;5043443;28;20021;-94
2023/12/01 01:57:47;;;;;;;34.70;16.73;;;1.60;99.90;;;;;;5041110;28;20033;-92
2023/12/01 02:00:17;;;;;;;29.48;16.08;;;1.60;99.90;;;;;;5034648;28;20025;-94
2023/12/01 02:02:43;;;;;;;37.80;15.90;;;1.60;99.90;;;;;;5036257;28;20026;-92
2023/12/01 02:05:13;;;;;;;27.10;15.30;;;2.20;99.90;;;;;;5033331;28;20052;-93
2023/12/01 02:07:39;;;;;;;28.15;15.27;;;2.70;99.90;;;;;;5030999;28;20049;-93
2023/12/01 02:10:06;;;;;;;23.88;13.27;;;2.30;99.90;;;;;;5040514;28;20478;-93
2023/12/01 02:12:32;;;;;;;30.52;14.55;;;1.70;99.90;;;;;;5041674;28;20040;-94
2023/12/01 02:14:57;;;;;;;26.88;14.25;;;1.40;99.90;;;;;;5039511;28;20041;-93
2023/12/01 02:17:23;;;;;;;23.98;13.57;;;1.50;99.90;;;;;;5027741;28;20030;-92
2023/12/01 02:19:51;;;;;;;29.42;15.20;;;2.20;99.90;;;;;;5019437;28;20064;-93
2023/12/01 02:22:17;;;;;;;27.33;13.63;;;1.60;99.90;;;;;;5018938;28;20474;-92
2023/12/01 02:24:42;;;;;;;23.33;13.25;;;2.60;99.90;;;;;;5019998;28;20030;-93
2023/12/01 02:27:09;;;;;;;29.50;13.48;;;2.70;99.90;;;;;;5022841;28;20033;-92
2023/12/01 02:29:34;;;;;;;25.27;13.85;;;1.50;99.90;;;;;;5035025;28;20029;-93
2023/12/01 02:32:00;;;;;;;25.90;13.45;;;2.50;99.90;;;;;;5045209;28;20112;-93
2023/12/01 02:34:25;;;;;;;26.98;12.93;;;1.20;99.90;;;;;;5039602;28;20060;-92
2023/12/01 02:36:53;;;;;;;28.63;13.68;;;1.30;99.90;;;;;;5029789;28;20040;-88
2023/12/01 02:39:19;;;;;;;23.30;11.27;;;2.40;99.90;;;;;;5022820;28;20429;-88
2023/12/01 02:52:26;;;;;;;29.73;13.50;;;1.50;99.90;;;;;;5808511;23;19987;-94
2023/12/01 02:54:52;;;;;;;26.90;13.40;;;1.50;99.90;;;;;;5035397;28;20053;-94
2023/12/01 02:57:19;;;;;;;24.85;12.88;;;2.30;99.90;;;;;;5040029;28;20029;-93
2023/12/01 02:59:44;;;;;;;28.48;13.55;;;2.20;99.90;;;;;;5026889;28;20074;-94
2023/12/01 03:02:10;;;;;;;29.52;12.93;;;2.10;99.90;;;;;;5040707;28;20010;-92
2023/12/01 03:04:35;;;;;;;32.20;13.55;;;2.70;99.90;;;;;;5040287;28;20057;-93
2023/12/01 03:07:04;;;;;;;38.40;15.63;;;1.50;99.90;;;;;;5031293;28;20030;-95
2023/12/01 03:09:29;;;;;;;40.05;15.88;;;1.80;99.90;;;;;;5018609;28;20474;-92
2023/12/01 03:15:20;;;;;;;34.33;15.65;;;1.50;99.90;;;;;;5221385;23;20061;-93
2023/12/01 03:20:19;;;;;;;42.25;17.83;;;1.50;99.90;;;;;;5079577;28;20041;-95
2023/12/01 03:30:31;;;;;;;36.38;16.77;;;1.50;99.90;;;;;;5196332;22;20064;-93
2023/12/01 03:35:33;;;;;;;42.25;18.88;;;1.50;99.90;;;;;;5110352;22;20049;-96
2023/12/01 03:50:55;;;;;;;30.55;15.10;;;1.60;99.90;;;;;;5176868;22;20851;-94
2023/12/01 03:53:23;;;;;;;32.00;15.75;;;1.20;99.90;;;;;;5051709;28;20029;-93
2023/12/01 03:55:49;;;;;;;31.02;13.73;;;1.50;99.90;;;;;;5033739;28;20041;-92
2023/12/01 03:58:15;;;;;;;29.55;13.57;;;1.50;99.90;;;;;;5050486;28;20021;-94
2023/12/01 04:00:41;;;;;;;27.83;13.27;;;2.10;99.90;;;;;;5045688;28;20068;-93
2023/12/01 04:03:07;;;;;;;25.00;12.98;;;1.50;99.90;;;;;;5042398;28;20071;-93
2023/12/01 04:05:42;;;;;;;28.27;13.57;;;2.60;99.90;;;;;;5039919;28;20022;-91
2023/12/01 04:08:07;;;;;;;31.95;13.07;;;2.20;99.90;;;;;;5029465;28;20030;-93
2023/12/01 04:10:33;;;;;;;26.58;12.25;;;1.50;99.90;;;;;;5037848;28;20539;-92
2023/12/01 04:13:07;;;;;;;29.98;14.60;;;1.10;99.90;;;;;;5037332;28;20056;-92
2023/12/01 04:15:33;;;;;;;26.55;12.60;;;1.40;99.90;;;;;;5036540;28;20037;-93
2023/12/01 04:18:06;;;;;;;27.27;13.50;;;1.50;99.90;;;;;;5020048;28;20029;-92
2023/12/01 04:20:36;;;;;;;28.35;13.63;;;1.70;99.90;;;;;;5035976;28;20053;-92
2023/12/01 04:23:23;;;;;;;;;;;1.50;99.90;;;;;;5037642;28;20025;-92
2023/12/01 04:25:49;;;;;;;26.65;12.02;;;1.30;99.90;;;;;;5036491;28;19990;-92
2023/12/01 04:28:15;;;;;;;24.27;11.80;;;1.30;99.90;;;;;;5029939;28;20033;-92
2023/12/01 04:30:42;;;;;;;35.60;14.07;;;1.50;99.90;;;;;;5024782;28;20030;-92
2023/12/01 04:33:14;;;;;;;33.53;14.27;;;2.40;99.90;;;;;;5041278;28;20048;-93
2023/12/01 04:35:47;;;;;;;33.38;15.00;;;2.20;99.90;;;;;;5040527;28;20041;-92
2023/12/01 04:38:13;;;;;;;41.08;14.57;;;1.60;99.90;;;;;;5033073;28;20031;-94
2023/12/01 04:40:39;;;;;;;34.50;13.73;;;1.80;99.90;;;;;;5027596;28;20385;-93
2023/12/01 04:43:04;;;;;;;35.88;15.32;;;1.40;99.90;;;;;;5036667;28;20071;-93
2023/12/01 04:45:35;;;;;;;33.13;15.30;;;2.60;99.90;;;;;;5038929;28;20029;-95
2023/12/01 04:48:01;;;;;;;40.10;16.08;;;2.70;99.90;;;;;;5041613;28;20026;-93
2023/12/01 04:50:30;;;;;;;42.03;16.00;;;2.30;99.90;;;;;;5025638;28;20065;-94
2023/12/01 04:52:58;;;;;;;40.97;17.50;;;2.30;99.90;;;;;;5036618;28;20033;-94
2023/12/01 04:55:25;;;;;;;46.45;17.63;;;1.70;99.90;;;;;;5040590;28;20087;-93
2023/12/01 04:57:51;;;;;;;42.30;18.10;;;1.70;99.90;;;;;;5047564;28;20044;-94
2023/12/01 05:00:19;;;;;;;46.10;18.30;;;2.30;99.90;;;;;;5051587;28;20026;-94
2023/12/01 05:02:47;;;;;;;40.40;16.60;;;2.70;99.90;;;;;;5046964;28;20025;-93
2023/12/01 05:05:15;;;;;;;43.00;18.60;;;1.80;99.90;;;;;;5039328;28;20025;-94
2023/12/01 05:25:44;;;;;;;45.10;19.40;;;2.00;99.90;;;;;;5025433;28;20054;-94
2023/12/01 05:28:10;;;;;;;46.75;18.58;;;1.90;99.90;;;;;;5023106;28;20037;-95
2023/12/01 05:30:41;;;;;;;47.08;19.40;;;2.90;99.90;;;;;;5007244;28;20051;-95
2023/12/01 05:33:07;;;;;;;49.47;19.55;;;1.90;99.90;;;;;;5004527;28;20026;-93
2023/12/01 05:35:37;;;;;;;45.90;17.40;;;1.90;99.90;;;;;;5004568;28;20038;-94
2023/12/01 05:38:09;;;;;;;45.45;20.33;;;2.20;99.90;;;;;;5001770;28;20022;-93
2023/12/01 05:40:36;;;;;;;41.83;17.92;;;3.00;99.90;;;;;;5015263;28;20037;-94
2023/12/01 05:43:03;;;;;;;46.33;19.85;;;2.70;99.90;;;;;;5022624;28;20072;-92
2023/12/01 05:58:26;;;;;;;48.72;19.00;;;2.20;99.90;;;;;;5138130;22;20057;-95
2023/12/01 06:00:52;;;;;;;42.33;18.33;;;3.00;99.90;;;;;;5019825;28;20040;-94
2023/12/01 06:03:19;;;;;;;50.92;19.67;;;3.00;99.90;;;;;;5024933;28;20090;-94
2023/12/01 06:05:46;;;;;;;51.28;19.50;;;2.90;99.90;;;;;;5025070;28;20038;-94
2023/12/01 06:08:12;;;;;;;52.30;19.23;;;2.60;99.90;;;;;;5036050;28;20018;-93
2023/12/01 06:10:40;;;;;;;45.20;18.85;;;3.00;99.90;;;;;;5037196;28;20002;-90
2023/12/01 06:13:06;;;;;;;45.75;19.55;;;2.10;99.90;;;;;;5027723;28;20018;-94
2023/12/01 06:15:33;;;;;;;55.35;20.85;;;2.10;99.90;;;;;;5037048;28;20118;-90
2023/12/01 07:57:04;;;;;;;58.13;21.67;;;2.50;99.90;;;;;;1161861;22;21113;-88
2023/12/01 08:12:25;;;;;;;57.42;22.52;;;2.50;99.90;;;;;;5029927;28;20042;-91
2023/12/01 08:14:51;;;;;;;56.35;21.95;;;2.50;99.90;;;;;;5016249;28;20125;-95
2023/12/01 08:17:17;;;;;;;55.80;21.08;;;2.50;99.90;;;;;;5008759;28;20029;-94
2023/12/01 08:19:42;;;;;;;57.55;21.10;;;2.40;99.90;;;;;;5026477;28;20034;-93
2023/12/01 08:22:08;;;;;;;56.67;23.60;;;2.70;99.90;;;;;;5024205;28;20064;-92
2023/12/01 08:24:37;;;;;;;51.08;20.52;;;3.40;99.90;;;;;;5313160;22;20141;-93
2023/12/01 08:27:04;;;;;;;52.80;21.40;;;2.60;99.90;;;;;;5311298;22;20121;-94
2023/12/01 08:29:30;;;;;;;51.58;22.58;;;2.50;99.90;;;;;;5044390;28;20049;-91
2023/12/01 08:31:55;;;;;;;55.30;20.58;;;2.60;99.90;;;;;;5034940;28;20038;-93
2023/12/01 08:34:21;;;;;;;50.13;21.35;;;2.40;99.90;;;;;;5035898;28;20037;-94
2023/12/01 08:36:47;;;;;;;59.13;21.77;;;2.50;99.90;;;;;;5036584;28;20022;-93
2023/12/01 08:39:12;;;;;;;49.72;21.73;;;2.40;99.90;;;;;;5023222;28;20092;-88
2023/12/01 08:41:38;;;;;;;51.95;20.90;;;2.50;99.90;;;;;;5022101;28;20025;-91
2023/12/01 08:44:04;;;;;;;49.05;19.20;;;2.50;99.90;;;;;;5017594;28;20021;-91
2023/12/01 08:49:11;;;;;;;56.53;23.08;;;2.60;99.90;;;;;;5083149;22;20112;-92
2023/12/01 08:51:37;;;;;;;52.75;21.33;;;2.50;99.90;;;;;;5016195;28;20500;-89
2023/12/01 08:54:02;;;;;;;51.75;22.00;;;2.60;99.90;;;;;;5014349;28;20038;-92
2023/12/01 08:56:35;;;;;;;53.00;21.05;;;2.60;99.90;;;;;;5016403;28;20026;-94
2023/12/01 08:59:01;;;;;;;53.50;21.00;;;2.80;99.90;;;;;;5003150;28;20034;-92
2023/12/01 09:01:27;;;;;;;51.83;20.58;;;3.90;99.90;;;;;;4997807;28;20105;-91
2023/12/01 09:03:53;;;;;;;49.50;19.73;;;2.60;99.90;;;;;;4996153;28;20052;-90
2023/12/01 09:06:18;;;;;;;47.85;21.08;;;2.70;99.90;;;;;;4994896;28;20026;-88
2023/12/01 09:08:44;;;;;;;46.88;19.63;;;2.60;99.90;;;;;;5010594;28;20058;-88
2023/12/01 09:11:09;;;;;;;41.85;18.20;;;2.70;99.90;;;;;;5026840;28;20114;-88
2023/12/01 09:13:36;;;;;;;46.97;17.98;;;2.70;99.90;;;;;;5018686;28;20031;-88
2023/12/01 09:16:02;;;;;;;42.08;16.05;;;2.70;99.90;;;;;;5002189;28;20026;-91
2023/12/01 09:18:29;;;;;;;34.00;14.38;;;2.70;99.90;;;;;;5018639;28;20030;-91
2023/12/01 09:20:55;;;;;;;33.95;15.13;;;2.70;99.90;;;;;;5006252;28;20042;-91
2023/12/01 09:23:22;;;;;;;30.33;13.68;;;2.70;99.90;;;;;;5047185;22;20109;-89
2023/12/01 09:25:51;;;;;;;35.67;13.73;;;2.60;99.90;;;;;;5056994;28;20092;-93
2023/12/01 09:28:17;;;;;;;36.42;13.93;;;2.60;99.90;;;;;;5051517;28;20010;-94
2023/12/01 09:30:42;;;;;;;34.78;14.73;;;2.50;99.90;;;;;;5024322;28;20101;-94
2023/12/01 09:33:08;;;;;;;34.08;14.50;;;2.80;99.90;;;;;;5028417;28;20026;-93
2023/12/01 09:35:41;;;;;;;33.90;14.38;;;2.60;99.90;;;;;;5029951;28;20026;-95
2023/12/01 09:38:08;;;;;;;36.88;15.65;;;2.60;99.90;;;;;;5008569;28;20042;-94
2023/12/01 09:40:39;;;;;;;27.25;13.90;;;2.60;99.90;;;;;;5039265;28;20598;-94
2023/12/01 09:43:07;;;;;;;34.78;14.55;;;3.30;99.90;;;;;;5028233;28;20022;-94
2023/12/01 09:45:37;;;;;;;30.33;13.75;;;3.30;99.90;;;;;;5029140;28;20041;-93
2023/12/01 09:48:08;;;;;;;36.03;15.38;;;2.20;99.90;;;;;;5034196;28;20022;-92
2023/12/01 09:50:34;;;;;;;32.90;14.15;;;3.20;99.90;;;;;;5003793;28;20129;-90
2023/12/01 09:53:00;;;;;;;33.33;13.98;;;2.80;99.90;;;;;;5025631;28;20029;-92
2023/12/01 09:55:29;;;;;;;33.42;14.23;;;2.80;99.90;;;;;;4995796;28;20133;-91
2023/12/01 09:57:56;;;;;;;35.78;14.70;;;2.80;99.90;;;;;;4995640;28;20033;-91
2023/12/01 10:00:22;;;;;;;33.22;14.98;;;3.80;99.90;;;;;;4996832;28;20434;-91
2023/12/01 10:02:48;;;;;;;30.40;14.02;;;4.20;99.90;;;;;;5012826;28;20022;-93
2023/12/01 10:05:18;;;;;;;35.92;14.90;;;2.80;99.90;;;;;;5022006;22;20125;-92
2023/12/01 10:07:44;;;;;;;30.00;14.52;;;2.80;99.90;;;;;;4981581;28;20038;-87
2023/12/01 10:10:24;;;;;;;37.03;15.73;;;2.80;99.90;;;;;;4976012;28;20058;-82
2023/12/01 10:12:58;;;;;;;34.38;14.35;;;2.80;99.90;;;;;;4987010;28;20035;-86
2023/12/01 10:15:48;;;;;;;35.80;15.50;;;2.80;99.90;;;;;;4975357;28;20038;-93
2023/12/01 10:18:16;;;;;;;35.65;14.57;;;2.80;99.90;;;;;;4986852;28;20027;-89
2023/12/01 10:20:58;;;;;;;34.13;14.65;;;2.80;99.90;;;;;;4985556;28;20029;-88
2023/12/01 10:23:24;;;;;;;31.50;14.43;;;2.90;99.90;;;;;;4987893;28;20027;-89
2023/12/01 10:25:51;;;;;;;31.73;14.18;;;2.90;99.90;;;;;;4991025;28;20161;-92
2023/12/01 10:28:20;;;;;;;34.58;15.15;;;2.90;99.90;;;;;;4993679;28;20027;-91
2023/12/01 10:30:57;;;;;;;33.58;15.70;;;2.90;99.90;;;;;;4992388;28;20072;-87
2023/12/01 10:33:24;;;;;;;28.33;14.30;;;2.90;99.90;;;;;;4973139;28;20078;-88
2023/12/01 10:36:09;;;;;;;32.38;13.80;;;2.90;99.90;;;;;;4974950;28;20465;-88
2023/12/01 10:38:39;;;;;;;31.80;13.70;;;2.90;99.90;;;;;;4988099;28;20026;-88
2023/12/01 10:41:05;;;;;;;32.65;14.88;;;3.20;99.90;;;;;;4985691;28;20045;-88
2023/12/01 10:43:32;;;;;;;35.97;14.13;;;2.90;99.90;;;;;;4994454;28;20514;-88
2023/12/01 10:46:04;;;;;;;32.42;14.52;;;2.90;99.90;;;;;;4994447;28;20026;-88
2023/12/01 10:48:31;;;;;;;29.63;13.80;;;2.80;99.90;;;;;;4988530;28;20022;-87
2023/12/01 10:50:57;;;;;;;31.00;14.63;;;2.90;99.90;;;;;;4974206;28;20093;-87
2023/12/01 10:53:26;;;;;;;29.50;12.93;;;2.80;99.90;;;;;;4994745;28;20478;-86
2023/12/01 10:55:54;;;;;;;29.10;13.87;;;2.80;99.90;;;;;;4989260;28;20790;-88
2023/12/01 10:58:22;;;;;;;27.40;13.32;;;2.90;99.90;;;;;;4988791;28;20290;-88
2023/12/01 11:00:49;;;;;;;32.42;13.93;;;2.80;99.90;;;;;;4991796;28;20509;-85
2023/12/01 11:03:24;;;;;;;32.30;13.68;;;2.80;99.90;;;;;;4995165;28;20026;-85
2023/12/01 11:06:03;;;;;;;29.98;13.55;;;2.90;99.90;;;;;;4994809;28;20564;-86
2023/12/01 11:08:41;;;;;;;28.23;13.05;;;2.80;99.90;;;;;;4993380;28;20113;-85
2023/12/01 11:11:14;;;;;;;33.13;14.45;;;2.90;99.90;;;;;;4992784;28;20506;-88
2023/12/01 11:14:16;;;;;;;37.22;15.93;;;2.80;99.90;;;;;;4995027;28;20034;-84
2023/12/01 11:16:42;;;;;;;29.60;13.57;;;2.90;99.90;;;;;;4992666;28;20117;-86
2023/12/01 11:19:11;;;;;;;32.53;13.73;;;2.90;99.90;;;;;;4993944;28;20030;-90
2023/12/01 11:21:40;;;;;;;29.77;12.40;;;2.90;99.90;;;;;;4988572;28;20034;-86
2023/12/01 11:24:23;;;;;;;32.88;14.02;;;2.90;99.90;;;;;;4979512;28;20383;-82
2023/12/01 11:26:48;;;;;;;33.33;12.93;;;2.90;99.90;;;;;;4977973;28;20065;-84
2023/12/01 11:29:30;;;;;;;37.00;13.60;;;2.90;99.90;;;;;;4993112;28;20053;-85
2023/12/01 11:31:58;;;;;;;32.95;13.35;;;2.80;99.90;;;;;;4993601;28;20030;-83
2023/12/01 11:34:27;;;;;;;31.85;14.65;;;2.80;99.90;;;;;;4976586;28;20499;-83
2023/12/01 11:36:54;;;;;;;32.17;14.05;;;2.80;99.90;;;;;;4984222;28;20038;-90
2023/12/01 11:39:27;;;;;;;31.25;13.75;;;4.00;99.90;;;;;;4990826;28;20088;-87
2023/12/01 11:41:59;;;;;;;31.90;13.48;;;2.90;99.90;;;;;;4991496;28;20030;-88
2023/12/01 11:44:38;;;;;;;35.50;15.00;;;2.90;99.90;;;;;;4993106;28;20610;-88
2023/12/01 11:47:06;;;;;;;26.23;12.40;;;2.90;99.90;;;;;;4991808;28;20058;-90
2023/12/01 11:49:38;;;;;;;35.63;14.70;;;3.30;99.90;;;;;;4994511;28;20026;-88
2023/12/01 11:52:19;;;;;;;33.33;12.93;;;3.60;99.90;;;;;;4987296;28;20101;-89
2023/12/01 11:54:47;;;;;;;27.92;12.32;;;3.20;99.90;;;;;;4989495;28;20129;-89
2023/12/01 11:57:17;;;;;;;29.50;12.70;;;4.20;99.90;;;;;;4989832;28;20613;-89
2023/12/01 11:59:43;;;;;;;32.90;13.07;;;3.10;99.90;;;;;;4994686;28;20027;-88
2023/12/01 12:02:08;;;;;;;28.52;13.68;;;4.10;99.90;;;;;;4994240;28;20031;-89
2023/12/01 12:04:37;;;;;;;28.88;12.38;;;2.90;99.90;;;;;;4995454;28;20031;-90
2023/12/01 12:07:06;;;;;;;27.65;12.05;;;3.80;99.90;;;;;;4993422;28;20422;-90
2023/12/01 12:09:33;;;;;;;27.55;12.77;;;3.00;99.90;;;;;;4993987;28;20145;-91
2023/12/01 12:12:05;;;;;;;30.50;13.52;;;3.00;99.90;;;;;;4993329;28;20043;-88
2023/12/01 12:14:31;;;;;;;26.30;12.65;;;3.10;99.90;;;;;;4984710;28;20486;-89
2023/12/01 12:16:57;;;;;;;31.42;13.93;;;3.00;99.90;;;;;;4982766;28;20037;-89
2023/12/01 12:19:23;;;;;;;31.08;12.77;;;4.20;99.90;;;;;;4978850;28;20491;-89
2023/12/01 12:21:48;;;;;;;31.45;13.10;;;3.00;99.90;;;;;;4982829;28;20062;-88
2023/12/01 12:24:15;;;;;;;26.30;11.95;;;3.00;99.90;;;;;;4989511;28;20022;-89
2023/12/01 12:26:41;;;;;;;27.85;12.52;;;3.00;99.90;;;;;;4996134;28;20041;-89
2023/12/01 12:29:07;;;;;;;26.17;12.13;;;3.00;99.90;;;;;;4992153;28;20034;-88
2023/12/01 12:31:37;;;;;;;29.40;13.30;;;3.00;99.90;;;;;;5008303;28;20041;-88
2023/12/01 12:34:05;;;;;;;26.80;11.43;;;3.00;99.90;;;;;;4996836;28;20144;-87
2023/12/01 12:36:32;;;;;;;25.73;11.55;;;3.00;99.90;;;;;;5003199;28;20037;-87
2023/12/01 12:39:00;;;;;;;26.88;12.05;;;3.00;99.90;;;;;;4997380;28;20394;-88
2023/12/01 12:41:31;;;;;;;22.45;10.85;;;3.00;99.90;;;;;;4993643;28;20093;-88
2023/12/01 12:43:58;;;;;;;26.08;11.65;;;3.10;99.90;;;;;;4986013;28;20026;-88
2023/12/01 12:46:25;;;;;;;32.13;14.05;;;3.20;99.90;;;;;;4979129;28;20050;-88
2023/12/01 12:48:59;;;;;;;25.15;11.73;;;3.20;99.90;;;;;;4974724;28;20027;-88
2023/12/01 12:51:27;;;;;;;23.70;10.57;;;3.30;99.90;;;;;;4974538;28;20073;-88
2023/12/01 12:53:53;;;;;;;23.15;10.68;;;3.30;99.90;;;;;;4985294;28;20559;-87
2023/12/01 12:56:21;;;;;;;27.75;11.90;;;3.40;99.90;;;;;;4974387;28;20031;-87
2023/12/01 12:58:49;;;;;;;32.50;12.48;;;3.40;99.90;;;;;;4989101;28;20077;-87
2023/12/01 13:01:15;;;;;;;26.00;11.73;;;3.40;99.90;;;;;;4981134;28;20499;-88
2023/12/01 13:03:41;;;;;;;21.27;10.93;;;3.50;99.90;;;;;;4985223;28;20506;-87
2023/12/01 13:06:08;;;;;;;25.65;11.48;;;3.50;99.90;;;;;;4997054;28;20145;-88
2023/12/01 13:08:34;;;;;;;26.35;11.70;;;3.60;99.90;;;;;;4990246;28;20027;-87
2023/12/01 13:11:01;;;;;;;24.10;11.43;;;3.60;99.90;;;;;;4980890;28;20037;-87
2023/12/01 13:13:27;;;;;;;25.02;11.15;;;3.60;99.90;;;;;;4985391;28;20027;-88
2023/12/01 13:15:53;;;;;;;26.50;11.82;;;3.60;99.90;;;;;;4978574;28;20517;-88
2023/12/01 13:18:18;;;;;;;25.30;11.10;;;3.60;99.90;;;;;;4979382;28;20029;-87
2023/12/01 13:20:44;;;;;;;23.65;11.57;;;3.90;99.90;;;;;;4987288;28;20061;-85
2023/12/01 13:23:11;;;;;;;27.83;11.05;;;3.60;99.90;;;;;;4993986;28;20054;-91
2023/12/01 13:25:36;;;;;;;25.65;10.70;;;3.60;99.90;;;;;;4993899;28;20018;-91
2023/12/01 13:28:02;;;;;;;21.23;10.65;;;3.60;99.90;;;;;;4995282;28;20065;-89
2023/12/01 13:30:28;;;;;;;24.67;11.15;;;3.60;99.90;;;;;;4993443;28;20026;-88
2023/12/01 13:32:54;;;;;;;23.23;10.73;;;3.60;99.90;;;;;;4994673;28;20113;-89
2023/12/01 13:35:19;;;;;;;26.00;11.57;;;3.60;99.90;;;;;;4993749;28;20050;-92
2023/12/01 13:37:45;;;;;;;22.90;11.32;;;4.10;99.90;;;;;;4997688;28;20026;-88
2023/12/01 13:40:11;;;;;;;25.50;11.32;;;3.50;99.90;;;;;;4992772;28;20031;-93
2023/12/01 13:42:51;;;;;;;27.30;11.63;;;3.50;99.90;;;;;;4997771;28;20036;-92
2023/12/01 13:45:25;;;;;;;20.55;10.77;;;3.40;99.90;;;;;;4997210;28;20041;-93
2023/12/01 13:48:01;;;;;;;32.38;12.15;;;3.30;99.90;;;;;;4987240;28;20082;-93
2023/12/01 13:50:26;;;;;;;25.65;12.52;;;3.10;99.90;;;;;;4983396;28;20046;-93
2023/12/01 13:52:53;;;;;;;21.83;10.57;;;4.00;99.90;;;;;;4974489;28;20054;-90
2023/12/01 13:55:19;;;;;;;25.45;10.88;;;3.30;99.90;;;;;;4983355;28;20056;-92
2023/12/01 13:57:45;;;;;;;22.00;11.38;;;3.30;99.90;;;;;;4975139;28;20026;-93
2023/12/01 14:00:15;;;;;;;22.45;11.40;;;3.30;99.90;;;;;;4985699;28;20034;-92
2023/12/01 14:02:45;;;;;;;27.60;11.60;;;3.30;99.90;;;;;;4983224;28;20033;-88
2023/12/01 14:05:11;;;;;;;23.65;11.18;;;2.80;99.90;;;;;;4993192;28;20062;-90
2023/12/01 14:07:37;;;;;;;30.40;11.30;;;3.60;99.90;;;;;;5117247;23;20110;-94
2023/12/01 14:10:04;;;;;;;23.55;11.02;;;3.30;99.90;;;;;;5032386;28;20127;-89
2023/12/01 14:12:30;;;;;;;24.23;10.93;;;3.30;99.90;;;;;;5046095;28;20044;-91
2023/12/01 14:14:57;;;;;;;19.77;9.93;;;3.70;99.90;;;;;;5042129;28;20057;-90
2023/12/01 14:17:22;;;;;;;22.13;11.00;;;3.30;99.90;;;;;;5051584;28;20029;-91
2023/12/01 14:19:48;;;;;;;21.67;11.38;;;4.20;99.90;;;;;;5048783;28;20484;-89
2023/12/01 14:22:13;;;;;;;21.90;11.65;;;4.30;99.90;;;;;;5043181;28;20176;-90
2023/12/01 14:24:39;;;;;;;23.67;11.20;;;3.40;99.90;;;;;;5046231;28;20030;-89
2023/12/01 14:27:05;;;;;;;23.05;11.15;;;3.30;99.90;;;;;;5044978;28;20036;-90
2023/12/01 14:29:32;;;;;;;22.02;10.25;;;3.20;99.90;;;;;;5037665;28;20025;-88
2023/12/01 14:32:00;;;;;;;24.95;11.63;;;3.20;99.90;;;;;;5034596;28;20033;-90
2023/12/01 14:34:26;;;;;;;26.55;11.50;;;3.20;99.90;;;;;;5053881;28;20040;-91
2023/12/01 14:36:52;;;;;;;20.77;9.48;;;3.10;99.90;;;;;;5029539;28;20026;-88
2023/12/01 14:39:18;;;;;;;25.38;10.57;;;3.10;99.90;;;;;;5022787;28;20064;-92
2023/12/01 14:41:46;;;;;;;20.00;10.45;;;3.00;99.90;;;;;;5025817;28;20143;-90
2023/12/01 14:44:13;;;;;;;20.85;11.32;;;3.00;99.90;;;;;;5020412;28;20116;-91
2023/12/01 14:46:39;;;;;;;27.92;11.18;;;3.00;99.90;;;;;;5016985;28;20034;-91
2023/12/01 14:49:04;;;;;;;22.13;10.25;;;2.90;99.90;;;;;;5026870;28;20041;-91
2023/12/01 14:51:30;;;;;;;24.27;11.15;;;2.90;99.90;;;;;;5020087;28;20360;-93
2023/12/01 14:53:56;;;;;;;23.15;10.57;;;2.90;99.90;;;;;;5022163;28;20025;-92
2023/12/01 14:56:22;;;;;;;21.00;10.18;;;2.90;99.90;;;;;;5020635;28;20030;-92
2023/12/01 14:58:48;;;;;;;22.13;10.80;;;2.80;99.90;;;;;;5017771;28;20458;-91
2023/12/01 15:01:13;;;;;;;19.80;10.25;;;2.80;99.90;;;;;;5022754;28;20127;-92
2023/12/01 15:03:39;;;;;;;27.63;11.45;;;2.80;99.90;;;;;;5030077;28;20021;-91
2023/12/01 15:06:07;;;;;;;22.42;9.88;;;2.70;99.90;;;;;;5008111;28;20054;-90
2023/12/01 15:08:33;;;;;;;19.88;10.18;;;2.70;99.90;;;;;;5021440;28;20064;-91
2023/12/01 15:10:58;;;;;;;19.95;9.45;;;2.70;99.90;;;;;;5031333;28;20112;-91
2023/12/01 15:13:24;;;;;;;23.23;10.05;;;2.60;99.90;;;;;;5023201;28;20088;-91
2023/12/01 15:16:06;;;;;;;21.15;9.82;;;2.60;99.90;;;;;;5022249;28;20041;-90
2023/12/01 15:18:31;;;;;;;23.45;10.20;;;2.50;99.90;;;;;;5033551;28;20068;-91
2023/12/01 15:20:58;;;;;;;21.42;9.88;;;2.50;99.90;;;;;;5025687;28;20017;-89
2023/12/01 15:23:33;;;;;;;21.50;9.32;;;2.50;99.90;;;;;;5027844;28;20033;-91
2023/12/01 15:26:01;;;;;;;21.15;10.43;;;3.10;99.90;;;;;;5058282;23;20054;-91
2023/12/01 15:28:38;;;;;;;23.65;10.00;;;2.40;99.90;;;;;;5007104;28;20058;-92
2023/12/01 15:31:13;;;;;;;22.38;10.40;;;2.10;99.90;;;;;;5011044;28;20041;-91
2023/12/01 15:33:38;;;;;;;20.15;9.82;;;2.30;99.90;;;;;;5024865;28;20079;-93
2023/12/01 15:36:04;;;;;;;21.00;10.27;;;2.30;99.90;;;;;;5026770;28;20110;-89
2023/12/01 15:38:30;;;;;;;21.42;9.52;;;2.30;99.90;;;;;;5022358;28;20085;-89
2023/12/01 15:40:55;;;;;;;20.13;9.50;;;2.30;99.90;;;;;;5029157;28;20064;-89
2023/12/01 15:43:21;;;;;;;20.55;10.38;;;2.30;99.90;;;;;;5020479;28;20088;-89
2023/12/01 15:45:46;;;;;;;20.02;10.40;;;2.20;99.90;;;;;;5003128;28;20026;-89
2023/12/01 15:48:12;;;;;;;21.30;10.38;;;2.20;99.90;;;;;;5007518;28;20021;-89